createdAt,value
2018-04-13T00:00:27.224Z,94.79
2018-04-13T00:01:38.148Z,94.79
2018-04-13T00:02:50.400Z,94.64
2018-04-13T00:04:02.540Z,94.69
2018-04-13T00:05:13.580Z,94.21
2018-04-13T00:06:24.794Z,94.59
2018-04-13T00:07:35.602Z,94.12
2018-04-13T00:08:47.507Z,94.59
2018-04-13T00:09:58.453Z,94.12
2018-04-13T00:11:09.079Z,94.21
2018-04-13T00:12:23.684Z,94.4
2018-04-13T00:13:35.718Z,94.21
2018-04-13T00:14:47.119Z,94.4
2018-04-13T00:15:58.544Z,94.4
2018-04-13T00:17:09.146Z,94.21
2018-04-13T00:18:19.855Z,94.31
2018-04-13T00:19:30.294Z,94.5
2018-04-13T00:20:42.092Z,94.5
2018-04-13T00:22:00.624Z,94.4
2018-04-13T00:23:12.572Z,94.31
2018-04-13T00:24:23.453Z,94.21
2018-04-13T00:25:35.518Z,94.4
2018-04-13T00:26:47.684Z,94.5
2018-04-13T00:27:59.114Z,94.5
2018-04-13T00:29:10.754Z,94.4
2018-04-13T00:30:22.539Z,94.4
2018-04-13T00:31:32.985Z,94.5
2018-04-13T00:32:44.629Z,94.31
2018-04-13T00:33:55.332Z,94.12
2018-04-13T00:35:06.704Z,94.21
2018-04-13T00:36:18.717Z,93.93
2018-04-13T00:37:29.853Z,93.93
2018-04-13T00:38:44.754Z,93.93
2018-04-13T00:39:57.962Z,93.63
2018-04-13T00:41:09.213Z,94.31
2018-04-13T00:42:21.873Z,94.35
2018-04-13T00:43:32.908Z,94.4
2018-04-13T00:44:43.524Z,94.5
2018-04-13T00:45:54.482Z,94.4
2018-04-13T00:47:06.865Z,94.4
2018-04-13T00:48:17.419Z,94.26
2018-04-13T00:49:27.564Z,94.26
2018-04-13T00:50:38.980Z,94.55
2018-04-13T00:51:49.738Z,94.55
2018-04-13T00:53:02.485Z,94.35
2018-04-13T00:54:13.886Z,94.26
2018-04-13T00:55:26.920Z,94.55
2018-04-13T00:56:37.611Z,95.03
2018-04-13T00:57:49.602Z,94.64
2018-04-13T00:59:00.588Z,94.84
2018-04-13T01:00:12.803Z,94.64
2018-04-13T01:01:23.100Z,94.55
2018-04-13T01:02:33.927Z,95.22
2018-04-13T01:03:44.921Z,94.74
2018-04-13T01:04:56.731Z,95.12
2018-04-13T01:06:07.532Z,94.74
2018-04-13T01:07:18.661Z,94.93
2018-04-13T01:08:29.849Z,94.93
2018-04-13T01:09:41.278Z,95.12
2018-04-13T01:10:52.077Z,95.41
2018-04-13T01:12:02.462Z,95.41
2018-04-13T01:13:13.992Z,95.03
2018-04-13T01:14:24.988Z,95.31
2018-04-13T01:15:35.558Z,95.03
2018-04-13T01:16:46.768Z,94.84
2018-04-13T01:17:58.601Z,94.84
2018-04-13T01:19:09.460Z,95.31
2018-04-13T01:20:21.839Z,95.12
2018-04-13T01:21:32.606Z,94.74
2018-04-13T01:22:43.767Z,95.03
2018-04-13T01:23:56.415Z,94.84
2018-04-13T01:25:07.828Z,94.64
2018-04-13T01:26:17.728Z,94.64
2018-04-13T01:27:27.877Z,94.07
2018-04-13T01:28:39.147Z,94.35
2018-04-13T01:29:50.096Z,94.45
2018-04-13T01:31:03.125Z,93.88
2018-04-13T01:32:13.766Z,93.49
2018-04-13T01:33:24.949Z,93.4
2018-04-13T01:34:35.487Z,93.3
2018-04-13T01:35:48.939Z,93.69
2018-04-13T01:37:00.887Z,93.11
2018-04-13T01:38:12.666Z,92.54
2018-04-13T01:39:23.125Z,92.54
2018-04-13T01:40:34.527Z,92.54
2018-04-13T01:41:47.602Z,91.67
2018-04-13T01:42:59.600Z,91.67
2018-04-13T01:44:10.581Z,91
2018-04-13T01:45:22.133Z,91.19
2018-04-13T01:46:33.984Z,90.72
2018-04-13T01:47:44.293Z,90.81
2018-04-13T01:48:56.181Z,90.72
2018-04-13T01:50:07.527Z,90.23
2018-04-13T01:51:21.526Z,89.76
2018-04-13T01:52:36.786Z,89.28
2018-04-13T01:53:49.440Z,89.37
2018-04-13T01:55:01.671Z,88.99
2018-04-13T01:56:12.938Z,89.28
2018-04-13T01:57:23.193Z,88.23
2018-04-13T01:58:35.666Z,87.84
2018-04-13T01:59:48.138Z,87.74
2018-04-13T02:01:00.741Z,87.27
2018-04-13T02:02:17.581Z,87.7
2018-04-13T02:03:27.942Z,87.5
2018-04-13T02:04:39.983Z,87.12
2018-04-13T02:05:53.001Z,87.5
2018-04-13T02:07:04.817Z,87.12
2018-04-13T02:08:18.531Z,87.02
2018-04-13T02:11:01.173Z,86.07
2018-04-13T02:12:13.749Z,86.16
2018-04-13T02:13:24.753Z,86.16
2018-04-13T02:14:35.384Z,85.68
2018-04-13T02:15:47.431Z,84.82
2018-04-13T02:16:58.576Z,85.16
2018-04-13T02:18:09.382Z,85.06
2018-04-13T02:19:21.817Z,84.53
2018-04-13T02:20:32.978Z,84.44
2018-04-13T02:21:46.546Z,84.44
2018-04-13T02:22:57.189Z,84.15
2018-04-13T02:24:09.924Z,84.01
2018-04-13T02:25:21.825Z,83.92
2018-04-13T02:26:33.250Z,83.44
2018-04-13T02:27:44.888Z,83.92
2018-04-13T02:28:56.578Z,83.15
2018-04-13T02:30:07.868Z,83.34
2018-04-13T02:31:33.416Z,83.25
2018-04-13T02:32:44.457Z,83.25
2018-04-13T02:33:55.726Z,82.67
2018-04-13T02:35:07.135Z,82.67
2018-04-13T02:36:17.997Z,82.38
2018-04-13T02:37:31.823Z,82.67
2018-04-13T02:38:42.067Z,82.67
2018-04-13T02:39:53.300Z,82.48
2018-04-13T02:41:04.776Z,82.57
2018-04-13T02:42:14.772Z,82.67
2018-04-13T02:43:25.320Z,82.38
2018-04-13T02:44:36.271Z,82.57
2018-04-13T02:45:48.030Z,82.19
2018-04-13T02:46:59.924Z,82.48
2018-04-13T02:48:12.214Z,82.38
2018-04-13T02:49:26.073Z,82.19
2018-04-13T02:50:37.263Z,82.19
2018-04-13T02:51:49.160Z,82.19
2018-04-13T02:53:00.437Z,82.29
2018-04-13T02:54:11.800Z,82.15
2018-04-13T02:55:22.297Z,82.34
2018-04-13T02:56:34.513Z,82.57
2018-04-13T02:57:46.637Z,82.53
2018-04-13T02:58:57.737Z,82.09
2018-04-13T03:00:08.125Z,82.24
2018-04-13T03:01:19.458Z,82.06
2018-04-13T03:02:30.279Z,82.29
2018-04-13T03:03:41.286Z,82.06
2018-04-13T03:04:51.199Z,82.24
2018-04-13T03:06:02.847Z,82.63
2018-04-13T03:07:14.579Z,82.24
2018-04-13T03:08:28.207Z,81.86
2018-04-13T03:09:39.106Z,81.86
2018-04-13T03:10:51.317Z,81.67
2018-04-13T03:12:03.877Z,81.57
2018-04-13T03:13:15.645Z,81.57
2018-04-13T03:14:27.495Z,81.29
2018-04-13T03:15:41.741Z,81
2018-04-13T03:16:52.413Z,81.38
2018-04-13T03:18:05.125Z,81.29
2018-04-13T03:19:15.527Z,81.29
2018-04-13T03:20:28.163Z,81.2
2018-04-13T03:21:38.764Z,81.29
2018-04-13T03:22:50.748Z,81.48
2018-04-13T03:24:01.710Z,81
2018-04-13T03:25:12.711Z,81.1
2018-04-13T03:26:24.547Z,81.1
2018-04-13T03:27:36.885Z,81.1
2018-04-13T03:28:47.924Z,81.29
2018-04-13T03:29:58.880Z,80.9
2018-04-13T03:31:12.556Z,80.71
2018-04-13T03:32:22.993Z,80.33
2018-04-13T03:33:34.513Z,80.14
2018-04-13T03:34:49.373Z,80.24
2018-04-13T03:36:01.187Z,80.33
2018-04-13T03:37:13.028Z,79.95
2018-04-13T03:38:25.040Z,79.75
2018-04-13T03:39:38.282Z,79.95
2018-04-13T03:40:51.237Z,79.66
2018-04-13T03:42:02.840Z,79.85
2018-04-13T03:43:15.674Z,79.28
2018-04-13T03:44:27.332Z,79.75
2018-04-13T03:45:37.998Z,79.66
2018-04-13T03:46:48.565Z,79.47
2018-04-13T03:47:59.362Z,79.66
2018-04-13T03:49:10.617Z,79.37
2018-04-13T03:50:22.579Z,79.08
2018-04-13T03:51:33.812Z,78.89
2018-04-13T03:52:48.008Z,78.61
2018-04-13T03:54:00.265Z,78.7
2018-04-13T03:55:11.478Z,78.61
2018-04-13T03:56:32.864Z,78.8
2018-04-13T03:57:44.956Z,78.51
2018-04-13T03:58:56.850Z,78.42
2018-04-13T04:00:09.276Z,78.61
2018-04-13T04:01:22.350Z,78.61
2018-04-13T04:02:33.929Z,78.8
2018-04-13T04:03:45.806Z,78.61
2018-04-13T04:04:58.225Z,78.7
2018-04-13T04:06:09.196Z,78.42
2018-04-13T04:07:20.254Z,78.42
2018-04-13T04:08:31.839Z,78.32
2018-04-13T04:09:44.499Z,78.13
2018-04-13T04:10:55.890Z,77.84
2018-04-13T04:12:07.849Z,78.13
2018-04-13T04:13:20.006Z,77.84
2018-04-13T04:14:48.546Z,77.75
2018-04-13T04:16:00.972Z,77.84
2018-04-13T04:17:13.007Z,77.75
2018-04-13T04:18:23.661Z,78.22
2018-04-13T04:19:35.015Z,78.03
2018-04-13T04:20:46.129Z,78.32
2018-04-13T04:21:56.999Z,78.03
2018-04-13T04:23:08.415Z,77.94
2018-04-13T04:24:20.836Z,77.84
2018-04-13T04:25:33.098Z,77.75
2018-04-13T04:26:47.169Z,77.94
2018-04-13T04:27:58.340Z,77.94
2018-04-13T04:29:08.853Z,78.13
2018-04-13T04:30:20.068Z,78.13
2018-04-13T04:31:33.983Z,77.75
2018-04-13T04:32:44.628Z,77.94
2018-04-13T04:33:56.692Z,77.75
2018-04-13T04:35:11.503Z,77.75
2018-04-13T04:36:39.077Z,77.65
2018-04-13T04:37:53.382Z,77.94
2018-04-13T04:39:05.808Z,77.94
2018-04-13T04:40:17.592Z,77.84
2018-04-13T04:41:29.625Z,78.03
2018-04-13T04:42:41.394Z,77.75
2018-04-13T04:43:53.102Z,77.75
2018-04-13T04:45:05.655Z,77.84
2018-04-13T04:46:16.830Z,77.84
2018-04-13T04:47:29.335Z,77.94
2018-04-13T04:48:40.125Z,78.03
2018-04-13T04:49:54.241Z,78.13
2018-04-13T04:51:05.506Z,77.84
2018-04-13T04:52:20.073Z,77.65
2018-04-13T04:53:32.890Z,78.13
2018-04-13T04:54:44.445Z,78.03
2018-04-13T04:55:56.440Z,77.26
2018-04-13T04:57:10.486Z,77.55
2018-04-13T04:58:23.083Z,77.26
2018-04-13T04:59:35.181Z,77.17
2018-04-13T05:00:47.363Z,77.26
2018-04-13T05:01:58.203Z,77.46
2018-04-13T05:03:09.834Z,77.08
2018-04-13T05:04:21.258Z,76.98
2018-04-13T05:05:32.874Z,76.79
2018-04-13T05:06:44.943Z,76.69
2018-04-13T05:07:59.417Z,76.89
2018-04-13T05:09:10.675Z,76.4
2018-04-13T05:10:22.709Z,76.6
2018-04-13T05:11:36.586Z,76.69
2018-04-13T05:12:48.260Z,76.79
2018-04-13T05:13:59.094Z,76.79
2018-04-13T05:15:09.872Z,76.98
2018-04-13T05:16:22.718Z,76.79
2018-04-13T05:17:33.697Z,76.79
2018-04-13T05:18:47.125Z,76.89
2018-04-13T05:19:58.732Z,76.6
2018-04-13T05:21:10.799Z,76.5
2018-04-13T05:22:21.621Z,76.5
2018-04-13T05:23:33.688Z,76.31
2018-04-13T05:24:47.001Z,76.12
2018-04-13T05:25:57.871Z,76.12
2018-04-13T05:27:08.475Z,75.93
2018-04-13T05:28:22.141Z,76.21
2018-04-13T05:29:32.950Z,76.31
2018-04-13T05:30:43.742Z,76.25
2018-04-13T05:31:54.801Z,75.87
2018-04-13T05:33:06.593Z,76.02
2018-04-13T05:34:24.930Z,76.12
2018-04-13T05:35:37.137Z,75.64
2018-04-13T05:36:53.668Z,75.77
2018-04-13T05:38:06.170Z,75.83
2018-04-13T05:39:19.501Z,75.96
2018-04-13T05:40:29.748Z,75.83
2018-04-13T05:41:40.954Z,75.77
2018-04-13T05:42:53.612Z,76.12
2018-04-13T05:44:06.826Z,75.77
2018-04-13T05:45:19.859Z,75.68
2018-04-13T05:46:32.556Z,75.87
2018-04-13T05:47:46.825Z,75.77
2018-04-13T05:48:58.585Z,75.48
2018-04-13T05:50:09.378Z,75.01
2018-04-13T05:51:24.237Z,75.2
2018-04-13T05:52:34.820Z,74.62
2018-04-13T05:53:46.155Z,74.72
2018-04-13T05:54:57.565Z,74.52
2018-04-13T05:56:10.639Z,74.62
2018-04-13T05:57:23.911Z,74.05
2018-04-13T05:58:36.219Z,74.15
2018-04-13T05:59:47.103Z,73.95
2018-04-13T06:00:59.147Z,73.95
2018-04-13T06:02:10.608Z,73.66
2018-04-13T06:03:21.168Z,73.76
2018-04-13T06:04:36.425Z,74.62
2018-04-13T06:05:47.656Z,73.66
2018-04-13T06:06:58.598Z,73.86
2018-04-13T06:08:09.183Z,73.76
2018-04-13T06:09:22.706Z,74.15
2018-04-13T06:10:33.484Z,74.24
2018-04-13T06:11:48.920Z,74.33
2018-04-13T06:13:00.285Z,73.47
2018-04-13T06:14:11.229Z,74.15
2018-04-13T06:15:23.156Z,73.66
2018-04-13T06:16:34.530Z,73.86
2018-04-13T06:17:46.590Z,73.9
2018-04-13T06:18:59.663Z,73.22
2018-04-13T06:20:12.083Z,73.32
2018-04-13T06:21:23.756Z,73.41
2018-04-13T06:22:36.496Z,73.22
2018-04-13T06:23:47.398Z,72.84
2018-04-13T06:25:02.637Z,73.03
2018-04-13T06:26:15.815Z,73.22
2018-04-13T06:27:27.608Z,73.41
2018-04-13T06:28:39.890Z,73.32
2018-04-13T06:29:52.154Z,73.41
2018-04-13T06:31:05.757Z,72.64
2018-04-13T06:32:17.533Z,72.97
2018-04-13T06:33:28.574Z,72.2
2018-04-13T06:34:39.979Z,72.01
2018-04-13T06:35:52.321Z,72.11
2018-04-13T06:37:03.680Z,72.01
2018-04-13T06:38:14.964Z,71.82
2018-04-13T06:39:25.758Z,71.92
2018-04-13T06:40:36.739Z,71.82
2018-04-13T06:41:47.763Z,71.53
2018-04-13T06:43:00.460Z,71.53
2018-04-13T06:44:11.886Z,71.72
2018-04-13T06:45:26.819Z,71.15
2018-04-13T06:46:37.605Z,71.25
2018-04-13T06:47:48.540Z,70.86
2018-04-13T06:48:58.986Z,70.86
2018-04-13T06:50:10.828Z,70.86
2018-04-13T06:51:24.288Z,70.76
2018-04-13T06:52:35.877Z,71.15
2018-04-13T06:53:48.490Z,70.96
2018-04-13T06:54:59.110Z,70.8
2018-04-13T06:56:10.307Z,70.51
2018-04-13T06:57:23.265Z,70.51
2018-04-13T06:58:34.085Z,70.51
2018-04-13T06:59:44.950Z,70.51
2018-04-13T07:00:55.789Z,70.51
2018-04-13T07:02:06.755Z,70.03
2018-04-13T07:03:19.126Z,70.23
2018-04-13T07:04:30.175Z,70.13
2018-04-13T07:05:42.401Z,70.23
2018-04-13T07:06:53.851Z,69.84
2018-04-13T07:08:06.307Z,69.93
2018-04-13T07:09:17.162Z,69.56
2018-04-13T07:10:28.129Z,69.65
2018-04-13T07:11:39.591Z,69.78
2018-04-13T07:12:51.742Z,69.2
2018-04-13T07:14:03.168Z,69.4
2018-04-13T07:15:17.018Z,69.4
2018-04-13T07:16:28.811Z,69.11
2018-04-13T07:17:41.034Z,69.11
2018-04-13T07:19:07.492Z,68.63
2018-04-13T07:20:18.397Z,68.82
2018-04-13T07:21:30.213Z,68.82
2018-04-13T07:22:41.296Z,68.53
2018-04-13T07:23:52.888Z,68.05
2018-04-13T07:25:18.596Z,68.05
2018-04-13T07:26:30.409Z,68.24
2018-04-13T07:27:45.485Z,67.86
2018-04-13T07:28:58.059Z,67.99
2018-04-13T07:30:09.977Z,67.9
2018-04-13T07:31:21.296Z,67.9
2018-04-13T07:32:32.787Z,67.41
2018-04-13T07:33:45.152Z,67.51
2018-04-13T07:34:56.823Z,67.51
2018-04-13T07:36:11.009Z,67.41
2018-04-13T07:37:28.059Z,67.03
2018-04-13T07:38:43.819Z,66.84
2018-04-13T07:39:56.347Z,66.71
2018-04-13T07:41:09.181Z,66.61
2018-04-13T07:42:22.986Z,67.09
2018-04-13T07:43:36.611Z,67.03
2018-04-13T07:44:53.930Z,66.84
2018-04-13T07:46:06.067Z,67.19
2018-04-13T07:47:18.375Z,67.19
2018-04-13T07:48:33.090Z,67.09
2018-04-13T07:49:47.315Z,67.19
2018-04-13T07:51:00.280Z,67.29
2018-04-13T07:52:15.538Z,67.29
2018-04-13T07:53:28.942Z,67.29
2018-04-13T07:54:39.319Z,67.57
2018-04-13T07:55:50.179Z,67.19
2018-04-13T07:57:03.650Z,67.19
2018-04-13T07:58:17.169Z,67.29
2018-04-13T07:59:32.173Z,67.57
2018-04-13T08:00:49.581Z,67.76
2018-04-13T08:02:01.978Z,67.76
2018-04-13T08:03:21.003Z,67.96
2018-04-13T08:04:34.263Z,67.76
2018-04-13T08:05:44.771Z,67.86
2018-04-13T08:06:57.342Z,67.86
2018-04-13T08:08:09.868Z,67.57
2018-04-13T08:09:21.715Z,67.76
2018-04-13T08:10:32.958Z,68.15
2018-04-13T08:11:43.726Z,68.15
2018-04-13T08:12:55.858Z,68.15
2018-04-13T08:14:06.616Z,68.44
2018-04-13T08:15:18.270Z,68.24
2018-04-13T08:16:30.308Z,68.63
2018-04-13T08:17:41.378Z,68.63
2018-04-13T08:18:53.936Z,68.57
2018-04-13T08:20:06.215Z,68.47
2018-04-13T08:21:16.464Z,68.37
2018-04-13T08:22:26.627Z,68.76
2018-04-13T08:23:36.787Z,68.76
2018-04-13T08:24:46.986Z,68.66
2018-04-13T08:25:56.768Z,68.66
2018-04-13T08:27:06.940Z,68.57
2018-04-13T08:28:17.075Z,68.76
2018-04-13T08:29:27.249Z,68.66
2018-04-13T08:30:37.428Z,68.57
2018-04-13T08:31:47.680Z,68.85
2018-04-13T08:32:57.864Z,69.14
2018-04-13T08:34:08.020Z,69.34
2018-04-13T08:35:17.930Z,68.85
2018-04-13T08:36:28.277Z,69.43
2018-04-13T08:37:38.590Z,69.14
2018-04-13T08:38:48.838Z,69.05
2018-04-13T08:39:59.079Z,68.76
2018-04-13T08:41:09.296Z,68.85
2018-04-13T08:42:19.495Z,68.85
2018-04-13T08:43:29.802Z,68.95
2018-04-13T08:44:40.093Z,68.95
2018-04-13T08:45:50.315Z,69.34
2018-04-13T08:47:00.497Z,69.24
2018-04-13T08:48:10.688Z,69.24
2018-04-13T08:49:20.789Z,69.14
2018-04-13T08:50:31.092Z,69.24
2018-04-13T08:51:41.389Z,68.85
2018-04-13T08:52:51.699Z,68.57
2018-04-13T08:54:01.907Z,68.76
2018-04-13T08:55:12.357Z,68.85
2018-04-13T08:56:22.545Z,68.66
2018-04-13T08:57:32.520Z,68.47
2018-04-13T08:58:42.571Z,68.18
2018-04-13T08:59:52.742Z,68.47
2018-04-13T09:01:03.012Z,68.37
2018-04-13T09:02:13.241Z,68.47
2018-04-13T09:03:23.442Z,68.18
2018-04-13T09:04:33.601Z,68.57
2018-04-13T09:05:43.891Z,68.37
2018-04-13T09:06:54.068Z,68.47
2018-04-13T09:08:04.367Z,68.57
2018-04-13T09:09:14.576Z,69.43
2018-04-13T09:10:24.790Z,69.05
2018-04-13T09:11:35.036Z,69.43
2018-04-13T09:12:45.207Z,69.34
2018-04-13T09:13:55.427Z,69.53
2018-04-13T09:15:05.641Z,69.43
2018-04-13T09:16:15.814Z,70.01
2018-04-13T09:17:26.221Z,69.72
2018-04-13T09:18:36.112Z,69.62
2018-04-13T09:19:46.260Z,70.01
2018-04-13T09:20:56.519Z,69.91
2018-04-13T09:22:06.666Z,69.81
2018-04-13T09:23:16.822Z,69.91
2018-04-13T09:24:27.009Z,70.29
2018-04-13T09:25:37.267Z,70.29
2018-04-13T09:26:47.462Z,70.1
2018-04-13T09:27:57.840Z,69.91
2018-04-13T09:29:08.162Z,70.1
2018-04-13T09:30:18.324Z,70.58
2018-04-13T09:31:28.509Z,70.87
2018-04-13T09:32:38.655Z,70.58
2018-04-13T09:33:48.795Z,70.58
2018-04-13T09:34:59.059Z,70.49
2018-04-13T09:36:09.316Z,71.06
2018-04-13T09:37:19.531Z,70.78
2018-04-13T09:38:29.758Z,71.16
2018-04-13T09:39:39.668Z,71.16
2018-04-13T09:40:49.845Z,71.06
2018-04-13T09:41:59.978Z,71.06
2018-04-13T09:43:10.159Z,71.45
2018-04-13T09:44:20.518Z,71.73
2018-04-13T09:45:30.533Z,71.55
2018-04-13T09:46:40.681Z,71.55
2018-04-13T09:47:50.951Z,71.64
2018-04-13T09:49:00.858Z,71.73
2018-04-13T09:50:10.999Z,71.64
2018-04-13T09:51:21.181Z,71.73
2018-04-13T09:52:31.349Z,71.83
2018-04-13T09:53:41.632Z,71.93
2018-04-13T09:54:51.857Z,72.12
2018-04-13T09:56:02.067Z,72.22
2018-04-13T09:57:12.328Z,72.22
2018-04-13T09:58:22.578Z,72.12
2018-04-13T09:59:32.724Z,71.93
2018-04-13T10:00:42.921Z,72.12
2018-04-13T10:01:53.111Z,72.22
2018-04-13T10:03:03.055Z,72.34
2018-04-13T10:04:13.244Z,72.02
2018-04-13T10:05:23.465Z,72.25
2018-04-13T10:06:33.669Z,72.06
2018-04-13T10:07:43.582Z,72.25
2018-04-13T10:08:53.774Z,72.16
2018-04-13T10:10:03.973Z,72.16
2018-04-13T10:11:14.105Z,72.34
2018-04-13T10:12:24.282Z,72.16
2018-04-13T10:13:34.439Z,72.19
2018-04-13T10:14:44.633Z,72.19
2018-04-13T10:15:54.912Z,72
2018-04-13T10:17:05.088Z,72
2018-04-13T10:18:15.363Z,71.81
2018-04-13T10:19:25.622Z,71.81
2018-04-13T10:20:35.796Z,71.71
2018-04-13T10:21:46.055Z,71.75
2018-04-13T10:22:56.377Z,71.94
2018-04-13T10:24:06.637Z,71.46
2018-04-13T10:25:16.771Z,71.11
2018-04-13T10:26:26.956Z,70.72
2018-04-13T10:27:37.131Z,70.62
2018-04-13T10:28:47.433Z,70.34
2018-04-13T10:29:57.652Z,70.47
2018-04-13T10:31:07.824Z,69.83
2018-04-13T10:32:17.991Z,69.06
2018-04-13T10:33:27.915Z,67.94
2018-04-13T10:34:38.071Z,68.01
2018-04-13T10:35:48.263Z,67.62
2018-04-13T10:36:58.420Z,66.56
2018-04-13T10:38:08.596Z,66.17
2018-04-13T10:39:19.780Z,66.36
2018-04-13T10:40:29.947Z,66.17
2018-04-13T10:41:40.161Z,66.46
2018-04-13T10:42:50.338Z,66.33
2018-04-13T10:44:00.533Z,66.24
2018-04-13T10:45:10.879Z,66.39
2018-04-13T10:46:21.090Z,66.11
2018-04-13T10:47:31.261Z,66.11
2018-04-13T10:48:41.439Z,66.88
2018-04-13T10:49:51.620Z,66.69
2018-04-13T10:51:01.852Z,66.94
2018-04-13T10:52:12.091Z,67.03
2018-04-13T10:53:25.091Z,67.23
2018-04-13T10:54:35.240Z,67.23
2018-04-13T10:55:45.395Z,67.13
2018-04-13T10:56:55.557Z,67.42
2018-04-13T10:58:05.820Z,67.71
2018-04-13T10:59:16.045Z,67.42
2018-04-13T11:00:26.254Z,67.97
2018-04-13T11:01:36.448Z,67.87
2018-04-13T11:02:46.635Z,68.06
2018-04-13T11:03:56.816Z,67.77
2018-04-13T11:05:07.119Z,68.26
2018-04-13T11:06:16.674Z,68.35
2018-04-13T11:07:26.811Z,68.7
2018-04-13T11:08:36.973Z,68.7
2018-04-13T11:09:47.131Z,68.8
2018-04-13T11:10:57.299Z,69.09
2018-04-13T11:12:07.509Z,68.9
2018-04-13T11:13:17.702Z,68.99
2018-04-13T11:14:27.965Z,68.99
2018-04-13T11:15:38.175Z,68.6
2018-04-13T11:16:48.366Z,68.6
2018-04-13T11:17:58.800Z,68.41
2018-04-13T11:19:09.012Z,68.03
2018-04-13T11:20:19.172Z,67.93
2018-04-13T11:21:29.303Z,67.97
2018-04-13T11:22:39.505Z,67.93
2018-04-13T11:23:49.703Z,68.16
2018-04-13T11:24:59.933Z,68.03
2018-04-13T11:26:10.142Z,68.03
2018-04-13T11:27:20.342Z,68.06
2018-04-13T11:28:30.533Z,67.97
2018-04-13T11:29:40.747Z,67.87
2018-04-13T11:30:50.679Z,68.26
2018-04-13T11:32:00.836Z,68.06
2018-04-13T11:33:10.772Z,68.16
2018-04-13T11:34:21.033Z,68.26
2018-04-13T11:35:31.342Z,68.06
2018-04-13T11:36:41.527Z,68.06
2018-04-13T11:37:51.699Z,68.03
2018-04-13T11:39:01.881Z,68.32
2018-04-13T11:40:11.788Z,68.13
2018-04-13T11:41:22.041Z,68.22
2018-04-13T11:42:32.266Z,68.13
2018-04-13T11:43:42.563Z,68.13
2018-04-13T11:44:52.707Z,68.03
2018-04-13T11:46:02.920Z,68.13
2018-04-13T11:47:13.177Z,68.03
2018-04-13T11:48:23.322Z,68.13
2018-04-13T11:49:33.586Z,68.41
2018-04-13T11:50:43.878Z,68.51
2018-04-13T11:51:54.140Z,68.7
2018-04-13T11:53:04.366Z,68.22
2018-04-13T11:54:14.535Z,68.41
2018-04-13T11:55:24.702Z,68.51
2018-04-13T11:56:34.885Z,68.41
2018-04-13T11:57:45.054Z,67.93
2018-04-13T11:58:55.255Z,68.22
2018-04-13T12:00:05.594Z,68.13
2018-04-13T12:01:15.831Z,68.26
2018-04-13T12:02:26.092Z,67.77
2018-04-13T12:03:36.393Z,67.58
2018-04-13T12:04:46.588Z,67.23
2018-04-13T12:05:56.725Z,66.46
2018-04-13T12:07:06.991Z,65.72
2018-04-13T12:08:17.215Z,64.98
2018-04-13T12:09:27.160Z,64.43
2018-04-13T12:10:37.576Z,63.6
2018-04-13T12:11:47.789Z,64.01
2018-04-13T12:12:58.066Z,62.95
2018-04-13T12:14:08.342Z,62.76
2018-04-13T12:15:18.548Z,62.37
2018-04-13T12:16:30.678Z,62.86
2018-04-13T12:17:40.929Z,62.86
2018-04-13T12:18:51.133Z,62.47
2018-04-13T12:20:01.293Z,62.37
2018-04-13T12:21:11.483Z,61.99
2018-04-13T12:22:21.702Z,61.12
2018-04-13T12:23:31.977Z,60.93
2018-04-13T12:25:55.053Z,60.67
2018-04-13T12:27:05.211Z,60.47
2018-04-13T12:30:47.633Z,60.38
2018-04-13T12:31:57.852Z,60.64
2018-04-13T12:33:08.016Z,60.44
2018-04-13T12:34:17.992Z,60.51
2018-04-13T12:35:28.281Z,60.41
2018-04-13T12:36:38.467Z,60.77
2018-04-13T12:37:48.701Z,61.54
2018-04-13T12:38:58.922Z,61.99
2018-04-13T12:40:09.128Z,63.34
2018-04-13T12:41:19.415Z,64.08
2018-04-13T12:42:29.684Z,64.37
2018-04-13T12:43:39.861Z,65.24
2018-04-13T12:44:50.031Z,65.69
2018-04-13T12:46:00.238Z,66.27
2018-04-13T12:47:10.394Z,67.39
2018-04-13T12:48:20.616Z,67.68
2018-04-13T12:49:30.941Z,67.93
2018-04-13T12:50:41.245Z,68.13
2018-04-13T12:51:51.169Z,68.7
2018-04-13T12:53:01.396Z,69.38
2018-04-13T12:54:12.095Z,69.95
2018-04-13T12:55:22.298Z,70.5
2018-04-13T12:56:32.645Z,70.68
2018-04-13T12:57:43.120Z,71.04
2018-04-13T12:58:53.334Z,72.09
2018-04-13T13:00:03.512Z,72.58
2018-04-13T13:01:13.788Z,73.15
2018-04-13T13:02:24.017Z,73.54
2018-04-13T13:03:34.198Z,74.11
2018-04-13T13:04:44.103Z,74.6
2018-04-13T13:05:54.345Z,74.88
2018-04-13T13:07:04.522Z,74.75
2018-04-13T13:08:14.750Z,76.39
2018-04-13T13:09:24.982Z,77.06
2018-04-13T13:10:35.201Z,77.83
2018-04-13T13:11:45.404Z,78.3
2018-04-13T13:12:55.607Z,78.59
2018-04-13T13:14:05.770Z,78.36
2018-04-13T13:15:15.940Z,78.65
2018-04-13T13:16:26.078Z,78.55
2018-04-13T13:17:35.981Z,79.03
2018-04-13T13:18:46.168Z,78.75
2018-04-13T13:19:56.367Z,79.32
2018-04-13T13:21:06.562Z,79.52
2018-04-13T13:22:16.713Z,79.52
2018-04-13T13:23:26.919Z,79.99
2018-04-13T13:24:37.179Z,79.61
2018-04-13T13:25:47.364Z,79.67
2018-04-13T13:26:57.359Z,79.57
2018-04-13T13:28:07.565Z,80.53
2018-04-13T13:29:17.766Z,81.3
2018-04-13T13:30:27.949Z,81.87
2018-04-13T13:31:38.227Z,82.64
2018-04-13T13:32:48.460Z,82.64
2018-04-13T13:33:58.644Z,82.84
2018-04-13T13:35:08.795Z,82.68
2018-04-13T13:36:18.996Z,82.64
2018-04-13T13:37:28.958Z,82.59
2018-04-13T13:38:39.365Z,82.49
2018-04-13T13:39:49.568Z,83.07
2018-04-13T13:40:59.807Z,82.53
2018-04-13T13:42:10.024Z,82.43
2018-04-13T13:43:20.247Z,82.57
2018-04-13T13:44:30.452Z,82.67
2018-04-13T13:45:40.649Z,81.94
2018-04-13T13:46:50.901Z,81.56
2018-04-13T13:48:01.068Z,81.02
2018-04-13T13:49:11.285Z,80.83
2018-04-13T13:50:22.766Z,80.35
2018-04-13T13:51:34.413Z,80.1
2018-04-13T13:52:44.625Z,79.52
2018-04-13T13:53:54.571Z,79.03
2018-04-13T13:55:04.791Z,78.98
2018-04-13T13:56:16.431Z,78.5
2018-04-13T13:57:27.867Z,78.11
2018-04-13T13:59:54.291Z,77.44
2018-04-13T14:01:04.490Z,77.34
2018-04-13T14:02:14.702Z,76.67
2018-04-13T14:03:24.873Z,76.86
2018-04-13T14:04:35.128Z,77.06
2018-04-13T14:05:45.303Z,77.15
2018-04-13T14:06:55.480Z,76.92
2018-04-13T14:08:05.664Z,76.92
2018-04-13T14:09:15.843Z,77.11
2018-04-13T14:10:26.010Z,77.11
2018-04-13T14:11:36.241Z,76.88
2018-04-13T14:12:46.515Z,77.08
2018-04-13T14:13:57.706Z,76.69
2018-04-13T14:15:07.963Z,77.17
2018-04-13T14:16:18.203Z,76.98
2018-04-13T14:17:28.391Z,77.17
2018-04-13T14:18:38.554Z,76.98
2018-04-13T14:19:48.726Z,77.17
2018-04-13T14:20:58.990Z,77.56
2018-04-13T14:22:09.253Z,78.03
2018-04-13T14:23:19.601Z,78.23
2018-04-13T14:24:29.782Z,77.75
2018-04-13T14:25:40.024Z,77.65
2018-04-13T14:26:50.673Z,77.36
2018-04-13T14:28:01.449Z,78.28
2018-04-13T14:29:11.730Z,78
2018-04-13T14:30:22.013Z,78.09
2018-04-13T14:31:32.583Z,78.48
2018-04-13T14:32:42.896Z,78.09
2018-04-13T14:33:53.045Z,77.96
2018-04-13T14:35:03.306Z,78.06
2018-04-13T14:36:13.509Z,78.44
2018-04-13T14:37:23.656Z,79.21
2018-04-13T14:38:33.814Z,78.92
2018-04-13T14:39:44.081Z,79.88
2018-04-13T14:40:54.367Z,80.17
2018-04-13T14:42:04.584Z,81.04
2018-04-13T14:43:14.802Z,81.71
2018-04-13T14:44:25.120Z,82.67
2018-04-13T14:45:35.328Z,83.3
2018-04-13T14:46:45.492Z,83.2
2018-04-13T14:47:55.744Z,83.78
2018-04-13T14:49:05.939Z,84.64
2018-04-13T14:50:16.123Z,84.7
2018-04-13T14:51:26.396Z,84.31
2018-04-13T14:52:36.643Z,84.22
2018-04-13T14:53:46.891Z,84.22
2018-04-13T14:54:57.118Z,84.51
2018-04-13T14:56:06.870Z,84.56
2018-04-13T14:57:17.093Z,84.75
2018-04-13T14:58:27.299Z,85.52
2018-04-13T14:59:37.499Z,86.1
2018-04-13T15:00:47.721Z,85.81
2018-04-13T15:01:58.029Z,86.48
2018-04-13T15:03:08.249Z,86.72
2018-04-13T15:04:18.435Z,86.52
2018-04-13T15:05:28.674Z,86.48
2018-04-13T15:06:38.884Z,86.48
2018-04-13T15:07:48.845Z,86.29
2018-04-13T15:08:59.047Z,86.96
2018-04-13T15:10:09.252Z,86.38
2018-04-13T15:11:19.659Z,86.52
2018-04-13T15:12:29.931Z,86.43
2018-04-13T15:13:40.166Z,86.52
2018-04-13T15:14:50.570Z,86.38
2018-04-13T15:16:00.805Z,86.43
2018-04-13T15:17:11.229Z,86.52
2018-04-13T15:18:21.464Z,86.38
2018-04-13T15:19:31.676Z,86.68
2018-04-13T15:20:41.880Z,85.81
2018-04-13T15:21:52.085Z,85.71
2018-04-13T15:23:02.252Z,85.24
2018-04-13T15:24:12.575Z,85.42
2018-04-13T15:25:22.805Z,84.85
2018-04-13T15:26:33.019Z,85.24
2018-04-13T15:27:43.259Z,84.56